• Join FlightAware (Why Join?)
  • Login
  • US Flag 
10:47PM EST


 

Airport Tracker/Info


-or-


 

Live Flight TrackerFlight Track Log ✈ DAL674 ✈ 12-May-2014 ✈ TIST / STT - KATL

Flight Track Log - Related Links

Times and Time Zones

All times are in EDT time to prevent confusion due to time zone crossing. See the DAL674 flight status page for this flight to view local times or setup timezone preferences in your user account.

Time Position Orientation Groundspeed Altitude Reporting Facility
EDT Latitude Longitude Course Direction KTS MPH feet Rate Location/Type
02:41PM 18.3333 -64.9333 255° West 160 184 1,500  Level San Juan Center
02:42PM 18.2833 -64.9333 180° South 210 242 3,200 2,529 Climbing San Juan Center
02:43PM 18.2833 -65.0167 270° West 290 334 6,600 2,975 Climbing San Juan Center
02:44PM 18.3333 -65.0667 316° Northwest 290 334 9,200 2,400 Climbing San Juan Center
02:45PM 18.4000 -65.1500 310° West 320 368 11,400 1,785 Climbing San Juan Center
02:46PM 18.3123 -65.1008 255° West  Level FlightAware Approximate
02:46PM 18.4667 -65.2167 317° Northwest 380 437 12,800  Level San Juan Center
02:47PM 18.5667 -65.2500 342° North 400 460 15,000 2,150 Climbing San Juan Center
02:48PM 18.6833 -65.2833 345° North 430 495 17,100 2,083 Climbing San Juan Center
02:49PM 18.8000 -65.3167 345° North 430 495 19,200 1,785 Climbing San Juan Center
02:50PM 18.9167 -65.3667 338° Northwest 450 518 20,700 1,650 Climbing San Juan Center
02:51PM 18.9833 -65.4833 301° West 450 518 22,500 1,650 Climbing San Juan Center
02:52PM 19.0667 -65.5833 311° West 460 529 24,000 1,488 Climbing San Juan Center
02:53PM 19.1333 -65.6833 305° West 460 529 25,500 1,488 Climbing San Juan Center
02:54PM 19.2167 -65.8000 307° West 460 529 27,000 1,438 Climbing San Juan Center
02:55PM 19.3000 -65.9167 307° West 470 541 28,400 1,388 Climbing San Juan Center
02:56PM 19.3833 -66.0333 307° West 480 552 29,800 1,400 Climbing San Juan Center
02:57PM 19.4667 -66.1333 311° West 480 552 31,200 1,350 Climbing San Juan Center
02:58PM 19.5333 -66.2500 301° West 480 552 32,500 1,388 Climbing San Juan Center
02:59PM 19.6167 -66.3667 307° West 470 541 34,000 1,438 Climbing San Juan Center
03:00PM 19.6833 -66.4667 305° West 460 529 35,400 1,000 Climbing San Juan Center
03:01PM 19.7667 -66.5833 307° West 450 518 36,000 298 Climbing San Juan Center
03:02PM 19.8333 -66.6833 305° West 440 506 36,000  Level San Juan Center
03:03PM 19.9000 -66.7833 305° West 450 518 36,000 500 Level San Juan Center
03:04PM 19.9833 -66.9000 307° West 450 518 37,000 850 Climbing San Juan Center
03:05PM 20.0500 -67.0000 305° West 450 518 37,700 496 Climbing San Juan Center
03:06PM 20.1167 -67.1000 305° West 450 518 38,000 149 Climbing San Juan Center
03:07PM 20.2000 -67.2167 307° West 450 518 38,000  Level San Juan Center
03:08PM 20.2667 -67.3167 305° West 440 506 38,000  Level San Juan Center
03:09PM 20.3333 -67.4167 305° West 430 495 38,000  Level San Juan Center
03:10PM 20.4167 -67.5333 307° West 440 506 38,000  Level San Juan Center
03:11PM 20.4833 -67.6333 305° West 440 506 38,000  Level San Juan Center
03:12PM 20.5375 -67.7019 310° West 442 509 38,000  Level Miami Center
03:13PM 20.6128 -67.8100 307° West 446 513 38,000  Level Miami Center
03:14PM 20.6964 -67.9417 304° West 447 514 38,000  Level Miami Center
03:15PM 20.7694 -68.0519 305° West 448 516 38,000  Level Miami Center
03:16PM 20.8436 -68.1606 306° West 449 517 38,000  Level Miami Center
03:17PM 20.9194 -68.2658 308° West 449 517 38,000  Level Miami Center
03:18PM 20.9992 -68.3714 309° West 449 517 38,000  Level Miami Center
03:19PM 21.0758 -68.4778 308° West 449 517 38,000  Level Miami Center
03:20PM 21.1664 -68.6047 307° West 449 517 38,000  Level Miami Center
03:21PM 21.2442 -68.7106 308° West 450 518 38,000  Level Miami Center
03:22PM 21.3189 -68.8161 307° West 449 517 38,000  Level Miami Center
03:23PM 21.3950 -68.9219 308° West 450 518 38,000  Level Miami Center
03:24PM 21.4669 -69.0269 306° West 447 514 38,000  Level Miami Center
03:25PM 21.5428 -69.1322 308° West 445 512 38,000  Level Miami Center
03:26PM 21.6183 -69.2375 308° West 445 512 38,000  Level Miami Center
03:27PM 21.7078 -69.3647 307° West 445 512 38,000  Level Miami Center
03:28PM 21.7822 -69.4697 307° West 445 512 38,000  Level Miami Center
03:29PM 21.8564 -69.5761 307° West 445 512 38,000  Level Miami Center
03:30PM 21.9306 -69.6814 307° West 445 512 38,000 -48 Level Miami Center
03:31PM 22.0064 -69.7889 307° West 445 512 37,900  Descending Miami Center
03:32PM 22.0864 -69.9014 308° West 446 513 38,000 48 Climbing Miami Center
03:33PM 22.1689 -70.0211 307° West 446 513 38,000  Level Miami Center
03:34PM 22.2444 -70.1278 307° West 446 513 38,000  Level Miami Center
03:35PM 22.3200 -70.2339 308° West 446 513 38,000  Level Miami Center
03:36PM 22.3944 -70.3414 307° West 446 513 38,000  Level Miami Center
03:37PM 22.4697 -70.4489 307° West 446 513 38,000  Level Miami Center
03:38PM 22.5567 -70.5767 306° West 446 513 38,000  Level Miami Center
03:40PM 22.6317 -70.6825 308° West 446 513 38,000  Level Miami Center
03:41PM 22.7056 -70.7897 307° West 446 513 38,000  Level Miami Center
03:42PM 22.7794 -70.8967 307° West 446 513 38,000  Level Miami Center
03:43PM 22.8539 -71.0036 307° West 446 513 38,000  Level Miami Center
03:44PM 22.9281 -71.1111 307° West 446 513 38,000  Level Miami Center
03:45PM 23.0167 -71.2408 307° West 446 513 38,000  Level Miami Center
03:46PM 23.0914 -71.3511 306° West 447 514 38,000  Level Miami Center
03:47PM 23.1653 -71.4592 307° West 447 514 38,000  Level Miami Center
03:48PM 23.2400 -71.5678 307° West 447 514 38,000  Level Miami Center
03:49PM 23.3136 -71.6781 306° West 448 516 38,000  Level Miami Center
03:50PM 23.3883 -71.7872 307° West 448 516 38,000  Level Miami Center
03:51PM 23.4772 -71.9192 306° West 448 516 38,000  Level Miami Center
03:52PM 23.5514 -72.0292 306° West 449 517 38,000  Level Miami Center
03:53PM 23.6256 -72.1389 306° West 449 517 38,000  Level Miami Center
03:54PM 23.6997 -72.2489 306° West 449 517 38,000  Level Miami Center
03:55PM 23.7742 -72.3594 306° West 450 518 38,000  Level Miami Center
03:56PM 23.8475 -72.4700 306° West 450 518 38,000  Level Miami Center
03:57PM 23.9303 -72.5917 307° West 450 518 38,000  Level Miami Center
03:58PM 24.0036 -72.7017 306° West 450 518 38,000  Level Miami Center
03:59PM 24.0767 -72.8122 306° West 449 517 38,000  Level Miami Center
04:00PM 24.1506 -72.9219 306° West 449 517 38,000  Level Miami Center
04:01PM 24.2375 -73.0542 306° West 448 516 38,000  Level Miami Center
04:02PM 24.3103 -73.1628 306° West 446 513 38,000  Level Miami Center
04:03PM 24.3825 -73.2739 306° West 446 513 38,000  Level Miami Center
04:04PM 24.4539 -73.3831 306° West 446 513 38,000  Level Miami Center
04:05PM 24.5267 -73.4928 306° West 445 512 38,000  Level Miami Center
04:06PM 24.5972 -73.6008 306° West 441 507 38,000  Level Miami Center
04:07PM 24.6689 -73.7108 306° West 439 505 38,000  Level Miami Center
04:08PM 24.7539 -73.8414 306° West 439 505 38,000  Level Miami Center
04:09PM 24.8281 -73.9519 306° West 442 509 38,000  Level Miami Center
04:10PM 24.8997 -74.0636 305° West 444 511 38,000  Level Miami Center
04:12PM 24.9722 -74.1761 305° West 446 513 38,000  Level Miami Center
04:13PM 25.0450 -74.2883 306° West 451 519 38,000  Level Miami Center
04:14PM 25.1172 -74.4022 305° West 451 519 38,000  Level Miami Center
04:15PM 25.1844 -74.5214 302° West 455 524 38,000  Level Miami Center
04:16PM 25.2658 -74.6639 302° West 457 526 38,000  Level Miami Center
04:17PM 25.3358 -74.7806 304° West 458 527 38,000  Level Miami Center
04:18PM 25.4108 -74.8950 306° West 457 526 38,000  Level Miami Center
04:19PM 25.4825 -75.0103 305° West 457 526 38,000  Level Miami Center
04:20PM 25.5547 -75.1244 305° West 456 525 38,000  Level Miami Center
04:21PM 25.6267 -75.2394 305° West 455 524 38,000  Level Miami Center
04:22PM 25.7136 -75.3781 305° West 455 524 38,000  Level Miami Center
04:23PM 25.7861 -75.4956 304° West 452 520 38,000  Level Miami Center
04:24PM 25.8564 -75.6094 304° West 450 518 38,000  Level Miami Center
04:25PM 25.9278 -75.7225 305° West 449 517 38,000  Level Miami Center
04:26PM 25.9964 -75.8350 304° West 446 513 38,000  Level Miami Center
04:27PM 26.0722 -75.9606 304° West 445 512 38,000  Level Miami Center
04:28PM 26.1378 -76.0733 303° West 437 503 38,000  Level Miami Center
04:29PM 26.2053 -76.1872 303° West 437 503 38,000  Level Miami Center
04:30PM 26.2792 -76.3131 303° West 441 507 38,000  Level Miami Center
04:31PM 26.3467 -76.4269 303° West 440 506 38,000  Level Miami Center
04:32PM 26.4131 -76.5408 303° West 439 505 38,000  Level Miami Center
04:33PM 26.4869 -76.6661 303° West 440 506 38,000  Level Miami Center
04:34PM 26.5600 -76.7767 306° West 440 506 38,000  Level Miami Center
04:35PM 26.6281 -76.8908 304° West 439 505 38,000  Level Miami Center
04:36PM 26.6989 -77.0161 302° West 437 503 38,000  Level Miami Center
04:37PM 26.7631 -77.1317 302° West 436 502 38,000  Level Miami Center
04:38PM 26.8294 -77.2483 303° West 438 504 38,000  Level Miami Center
04:39PM 26.8936 -77.3619 302° West 435 501 38,000  Level Miami Center
04:40PM 26.9636 -77.4906 301° West 435 501 38,000  Level Miami Center
04:41PM 27.0294 -77.6056 303° West 439 505 38,000  Level Miami Center
04:42PM 27.0969 -77.7172 304° West 436 502 38,000  Level Miami Center
04:44PM 27.1639 -77.8314 303° West 434 499 38,000  Level Miami Center
04:45PM 27.2378 -77.9553 304° West 434 499 38,000  Level Miami Center
04:46PM 27.3047 -78.0692 304° West 434 499 38,000  Level Miami Center
04:47PM 27.3714 -78.1767 305° West 430 495 38,000  Level Miami Center
04:48PM 27.4381 -78.2933 303° West 436 502 38,000  Level Miami Center
04:49PM 27.5031 -78.4064 303° West 435 501 38,000  Level Miami Center
04:50PM 27.5697 -78.5208 303° West 436 502 38,000 339 Level Miami Center
04:51PM 27.6486 -78.6569 303° West 433 498 38,700 484 Climbing Miami Center
04:52PM 27.7189 -78.7647 306° West 429 494 39,000 145 Climbing Miami Center
04:53PM 27.7883 -78.8781 305° West 422 486 39,000  Level Miami Center
04:54PM 27.8569 -78.9894 305° West 421 484 39,000  Level Miami Center
04:55PM 27.9189 -79.0897 305° West 424 488 39,000  Level Miami Center
04:56PM 28.0011 -79.1858 314° West 427 491 39,000  Level Miami Center
04:57PM 28.1108 -79.2903 320° Northwest 430 495 39,000  Level Miami Center
04:58PM 28.2017 -79.3789 319° Northwest 430 495 39,000  Level Miami Center
04:59PM 28.2936 -79.4661 320° Northwest 431 496 39,000  Level Miami Center
05:00PM 28.3842 -79.5550 319° Northwest 431 496 39,000  Level Miami Center
05:01PM 28.4758 -79.6444 319° Northwest 431 496 39,000  Level Miami Center
05:02PM 28.5664 -79.7339 319° Northwest 432 497 39,000  Level Miami Center
05:03PM 28.6756 -79.8397 320° Northwest 432 497 39,000  Level Miami Center
05:04PM 28.7678 -79.9300 319° Northwest 434 499 39,000  Level Miami Center
05:05PM 28.8583 -80.0189 319° Northwest 434 499 39,000  Level Miami Center
05:06PM 28.9489 -80.1083 319° Northwest 433 498 39,000  Level Miami Center
05:07PM 29.0403 -80.1989 319° Northwest 434 499 39,000  Level Miami Center
05:08PM 29.1308 -80.2878 319° Northwest 432 497 39,000  Level Miami Center
05:09PM 29.2383 -80.3967 319° Northwest 432 497 39,000  Level Miami Center
05:10PM 29.3283 -80.4869 319° Northwest 432 497 39,000  Level Miami Center
05:11PM 29.4189 -80.5767 319° Northwest 432 497 39,000  Level Miami Center
05:12PM 29.5083 -80.6669 319° Northwest 433 498 39,000  Level Miami Center
05:13PM 29.5969 -80.7592 318° Northwest 432 497 39,000  Level Miami Center
05:14PM 29.6889 -80.8489 320° Northwest 432 497 39,000  Level Miami Center
05:15PM 29.7967 -80.9586 319° Northwest 429 494 39,000  Level Jacksonville Center
05:16PM 29.8858 -81.0528 318° Northwest 429 494 39,000  Level Jacksonville Center
05:17PM 29.9789 -81.1444 320° Northwest 424 488 39,000  Level Jacksonville Center
05:18PM 30.0700 -81.2364 319° Northwest 424 488 39,000  Level Jacksonville Center
05:19PM 30.1608 -81.3311 318° Northwest 424 488 39,000  Level Jacksonville Center
05:20PM 30.2539 -81.4233 319° Northwest 429 494 39,000  Level Jacksonville Center
05:21PM 30.3467 -81.5133 320° Northwest 429 494 39,000  Level Jacksonville Center
05:22PM 30.4561 -81.5792 333° Northwest 434 499 39,000  Level Jacksonville Center
05:23PM 30.5653 -81.6406 334° Northwest 439 505 39,000  Level Jacksonville Center
05:24PM 30.6744 -81.7067 332° Northwest 439 505 39,000  Level Jacksonville Center
05:25PM 30.7856 -81.7731 333° Northwest 439 505 39,000  Level Jacksonville Center
05:26PM 30.8947 -81.8369 333° Northwest 439 505 39,000  Level Jacksonville Center
05:27PM 31.0039 -81.9036 332° Northwest 439 505 39,000  Level Jacksonville Center
05:28PM 31.1150 -81.9656 334° Northwest 439 505 39,000  Level Jacksonville Center
05:29PM 31.2156 -82.0278 332° Northwest 445 512 39,000  Level Jacksonville Center
05:30PM 31.3247 -82.0925 333° Northwest 445 512 39,000  Level Jacksonville Center
05:31PM 31.4336 -82.1597 332° Northwest 445 512 39,000 -874 Level Jacksonville Center
05:33PM 31.6169 -82.2586 335° Northwest 446 513 36,800 -1,470 Descending Atlanta Center
05:34PM 31.7283 -82.3272 332° Northwest 446 513 35,300 -900 Descending Atlanta Center
05:35PM 31.8442 -82.3958 333° Northwest 451 519 35,000 -150 Descending Atlanta Center
05:36PM 31.9600 -82.4647 333° Northwest 457 526 35,000  Level Atlanta Center
05:37PM 32.0733 -82.5364 332° Northwest 457 526 35,000 -450 Level Atlanta Center
05:38PM 32.1706 -82.6328 320° Northwest 457 526 34,100 -1,050 Descending Atlanta Center
05:39PM 32.2658 -82.7394 317° Northwest 462 532 32,900 -1,100 Descending Atlanta Center
05:40PM 32.3669 -82.8486 318° Northwest 474 545 31,900 -1,000 Descending Atlanta Center
05:41PM 32.4619 -82.9556 316° Northwest 479 551 30,900 -1,700 Descending Atlanta Center
05:42PM 32.5589 -83.0653 316° Northwest 479 551 28,500 -2,550 Descending Atlanta Center
05:43PM 32.6578 -83.1753 317° Northwest 484 557 25,800 -2,850 Descending Atlanta Center
05:44PM 32.7544 -83.2831 317° Northwest 484 557 22,800 -2,900 Descending Atlanta Center
05:45PM 32.8492 -83.3911 316° Northwest 473 544 20,000 -2,750 Descending Atlanta Center
05:46PM 32.9372 -83.4919 316° Northwest 463 533 17,300 -2,600 Descending Atlanta Center
05:47PM 33.0233 -83.5953 315° West 442 509 14,800 -2,250 Descending Atlanta Center
05:48PM 33.1028 -83.6817 318° Northwest 415 478 12,800 -1,250 Descending Atlanta Center
05:49PM 33.1761 -83.7658 316° Northwest 384 442 12,300 -650 Descending Atlanta Center
05:50PM 33.2389 -83.8400 315° West 347 399 11,500 -1,150 Descending Atlanta Center
05:51PM 33.2892 -83.9194 307° West 319 367 10,000 -1,400 Descending Atlanta Center
05:52PM 33.3392 -83.9942 309° West 299 344 8,700 -1,300 Descending Atlanta Center
05:53PM 33.4061 -84.0464 327° Northwest 278 320 7,400 -1,600 Descending Atlanta Center
05:54PM 33.4769 -84.0786 339° North 278 320 5,500 -1,200 Descending Atlanta Center
05:55PM 33.5353 -84.1286 324° Northwest 278 320 5,000 -1,042 Descending Atlanta Center
05:56PM 33.6000 -84.2167 311° West 248 285 3,000 -870 Descending Atlanta TRACON
05:57PM 33.6167 -84.2833 287° West 206 237 3,000 -400 Level Atlanta TRACON
05:58PM 33.6333 -84.3500 287° West 163 188 2,200 -714 Descending Atlanta TRACON
05:59PM 33.6333 -84.4000 270° West 143 165 1,500 -700 Descending Atlanta TRACON